メインページ
METAR-TAF:

METAR-TAF

空港 :

ワシントン・ダレス国際空港

ワシントン州, バージニア州, アメリカ合衆国

緯度: 38-56-05N, 経度: 077-26-51W, 海抜: 95m

現時点の気象観測

当レポートは27分前の10:52(UTC)に作成
北西の風 7kt
気温 2°C
湿度 64%
気圧 1029 hPa
視程: 16.1km
高度24000ftの曇り

METAR: KIAD 141052Z 32007KT 10SM OVC240 02/M04 A3040 RMK AO2 SLP295 T00221044

時間: 06:19 (11:19 UTC)

予報

当レポートは2時間39分前の08:40(UTC)に作成
予報は14日の 09時(UTC)から 15日の 12時(UTC)まで有効
北/北西の風 10kt、最大17ktの突風を伴う
視程: 10km
高度4000ftの雲は散在している
高度25000ftの千切れ雲あり
14日の 2200時(UTC)から
の風 6kt
視程: 10km
高度15000ftの雲は散在している
高度25000ftの千切れ雲あり
15日の 0700時(UTC)から
北東の風 4kt
視程: 10km
高度12000ftの雲は散在している
高度20000ftの曇り
15日の 0900時(UTC)から
北東の風 6kt
視程: 10km
高度7000ftの千切れ雲あり
高度9000ftの曇り
(弱い) 着氷性, 雨, 雪, 凍雨

TAF: KIAD 140840Z 1409/1512 33010G17KT P6SM SCT040 BKN250 FM142200 35006KT P6SM SCT150 BKN250 FM150700 05004KT P6SM SCT120 OVC200 FM150900 05006KT P6SM -FZRASNPL BKN070 OVC090

4,000以上の空港の気象観測と天気予報(METAR報とTAF報)

利用可能な観測所は地図上に黄色い丸と赤い丸で示す。

丸の上にカーソルを重ねると観測所名を参照できる。

次にクリックすると気象観測と天気予報を参照できる。

マップの切り替え:黒色「×」印の緑ボタンをクリックして拡大、「-」印の緑ボタンをクリックして縮小、緑色の三角印をクリックして隣りの地図に切り替え


METAR-TAF: